sensor_id;sensor_type;location;lat;lon;timestamp;pressure;altitude;pressure_sealevel;temperature;humidity
59274;BME280;45044;41.572;24.730;2023-05-21T00:01:43;91127.41;;;11.59;100.00
59274;BME280;45044;41.572;24.730;2023-05-21T00:04:11;91114.59;;;11.61;100.00
59274;BME280;45044;41.572;24.730;2023-05-21T00:06:38;91107.81;;;11.64;100.00
59274;BME280;45044;41.572;24.730;2023-05-21T00:09:05;91112.38;;;11.56;100.00
59274;BME280;45044;41.572;24.730;2023-05-21T00:11:32;91101.16;;;11.45;100.00
59274;BME280;45044;41.572;24.730;2023-05-21T00:13:59;91108.69;;;11.43;100.00
59274;BME280;45044;41.572;24.730;2023-05-21T00:16:25;91111.66;;;11.48;100.00
59274;BME280;45044;41.572;24.730;2023-05-21T00:18:52;91106.38;;;11.52;100.00
59274;BME280;45044;41.572;24.730;2023-05-21T00:21:20;91113.88;;;11.57;100.00
59274;BME280;45044;41.572;24.730;2023-05-21T00:23:52;91111.22;;;11.61;100.00
59274;BME280;45044;41.572;24.730;2023-05-21T00:26:22;91105.56;;;11.62;100.00
59274;BME280;45044;41.572;24.730;2023-05-21T00:28:52;91103.34;;;11.61;100.00
59274;BME280;45044;41.572;24.730;2023-05-21T00:31:19;91110.03;;;11.73;100.00
59274;BME280;45044;41.572;24.730;2023-05-21T00:33:46;91101.38;;;11.72;100.00
59274;BME280;45044;41.572;24.730;2023-05-21T00:36:13;91108.84;;;11.81;100.00
59274;BME280;45044;41.572;24.730;2023-05-21T00:38:40;91098.00;;;11.76;100.00
59274;BME280;45044;41.572;24.730;2023-05-21T00:41:09;91102.38;;;11.93;100.00
59274;BME280;45044;41.572;24.730;2023-05-21T00:43:37;91099.38;;;11.95;100.00
59274;BME280;45044;41.572;24.730;2023-05-21T00:46:07;91094.50;;;11.90;100.00
59274;BME280;45044;41.572;24.730;2023-05-21T00:48:37;91088.09;;;11.91;100.00
59274;BME280;45044;41.572;24.730;2023-05-21T00:51:05;91082.09;;;11.90;100.00
59274;BME280;45044;41.572;24.730;2023-05-21T00:53:32;91092.91;;;12.03;100.00
59274;BME280;45044;41.572;24.730;2023-05-21T00:56:01;91088.06;;;11.98;100.00
59274;BME280;45044;41.572;24.730;2023-05-21T00:58:29;91086.22;;;11.91;100.00
59274;BME280;45044;41.572;24.730;2023-05-21T01:00:57;91091.84;;;11.93;100.00
59274;BME280;45044;41.572;24.730;2023-05-21T01:03:24;91100.13;;;11.95;100.00
59274;BME280;45044;41.572;24.730;2023-05-21T01:05:51;91083.34;;;11.67;100.00
59274;BME280;45044;41.572;24.730;2023-05-21T01:08:19;91077.63;;;11.80;100.00
59274;BME280;45044;41.572;24.730;2023-05-21T01:10:48;91081.31;;;11.93;100.00
59274;BME280;45044;41.572;24.730;2023-05-21T01:13:15;91086.59;;;11.93;100.00
59274;BME280;45044;41.572;24.730;2023-05-21T01:15:43;91074.59;;;11.85;100.00
59274;BME280;45044;41.572;24.730;2023-05-21T01:18:11;91070.06;;;11.85;100.00
59274;BME280;45044;41.572;24.730;2023-05-21T01:20:39;91080.59;;;11.85;100.00
59274;BME280;45044;41.572;24.730;2023-05-21T01:23:08;91075.34;;;11.85;100.00
59274;BME280;45044;41.572;24.730;2023-05-21T01:25:35;91077.16;;;11.96;100.00
59274;BME280;45044;41.572;24.730;2023-05-21T01:28:02;91070.72;;;12.04;100.00
59274;BME280;45044;41.572;24.730;2023-05-21T01:30:28;91074.13;;;12.01;100.00
59274;BME280;45044;41.572;24.730;2023-05-21T01:33:03;91060.94;;;12.05;100.00
59274;BME280;45044;41.572;24.730;2023-05-21T01:35:35;91056.78;;;12.04;100.00
59274;BME280;45044;41.572;24.730;2023-05-21T01:43:18;91059.84;;;11.98;100.00
59274;BME280;45044;41.572;24.730;2023-05-21T01:45:46;91051.94;;;11.95;100.00
59274;BME280;45044;41.572;24.730;2023-05-21T01:48:13;91054.94;;;11.97;100.00
59274;BME280;45044;41.572;24.730;2023-05-21T01:50:44;91050.50;;;11.90;100.00
59274;BME280;45044;41.572;24.730;2023-05-21T01:53:11;91033.69;;;11.69;100.00
59274;BME280;45044;41.572;24.730;2023-05-21T01:55:37;91053.50;;;11.89;100.00
59274;BME280;45044;41.572;24.730;2023-05-21T01:58:07;91045.25;;;11.86;100.00
59274;BME280;45044;41.572;24.730;2023-05-21T02:00:34;91050.50;;;11.90;100.00
59274;BME280;45044;41.572;24.730;2023-05-21T02:03:01;91045.19;;;11.94;100.00
59274;BME280;45044;41.572;24.730;2023-05-21T02:05:28;91040.09;;;11.68;100.00
59274;BME280;45044;41.572;24.730;2023-05-21T02:07:54;91041.56;;;11.73;100.00
59274;BME280;45044;41.572;24.730;2023-05-21T02:10:22;91047.53;;;11.81;100.00
59274;BME280;45044;41.572;24.730;2023-05-21T02:12:49;91057.28;;;11.88;100.00
59274;BME280;45044;41.572;24.730;2023-05-21T02:15:16;91065.09;;;11.98;100.00
59274;BME280;45044;41.572;24.730;2023-05-21T02:17:45;91065.50;;;11.97;100.00
59274;BME280;45044;41.572;24.730;2023-05-21T02:20:12;91056.53;;;11.83;100.00
59274;BME280;45044;41.572;24.730;2023-05-21T02:22:42;91054.28;;;11.82;100.00
59274;BME280;45044;41.572;24.730;2023-05-21T02:25:11;91048.34;;;11.74;100.00
59274;BME280;45044;41.572;24.730;2023-05-21T02:27:41;91054.72;;;11.77;100.00
59274;BME280;45044;41.572;24.730;2023-05-21T02:30:10;91055.03;;;11.86;100.00
59274;BME280;45044;41.572;24.730;2023-05-21T02:32:37;91056.53;;;11.83;100.00
59274;BME280;45044;41.572;24.730;2023-05-21T02:35:09;91060.03;;;11.66;100.00
59274;BME280;45044;41.572;24.730;2023-05-21T02:37:37;91048.44;;;11.59;100.00
59274;BME280;45044;41.572;24.730;2023-05-21T02:40:07;91056.38;;;11.52;100.00
59274;BME280;45044;41.572;24.730;2023-05-21T02:42:36;91030.75;;;11.56;100.00
59274;BME280;45044;41.572;24.730;2023-05-21T02:45:06;91020.34;;;11.34;100.00
59274;BME280;45044;41.572;24.730;2023-05-21T02:47:33;91051.50;;;11.47;100.00
59274;BME280;45044;41.572;24.730;2023-05-21T02:50:01;91049.91;;;11.60;100.00
59274;BME280;45044;41.572;24.730;2023-05-21T02:52:28;91053.66;;;11.67;100.00
59274;BME280;45044;41.572;24.730;2023-05-21T02:54:55;91058.97;;;11.59;100.00
59274;BME280;45044;41.572;24.730;2023-05-21T02:57:21;91056.38;;;11.52;100.00
59274;BME280;45044;41.572;24.730;2023-05-21T02:59:48;91046.91;;;11.62;100.00
59274;BME280;45044;41.572;24.730;2023-05-21T03:02:15;91055.19;;;11.60;100.00
59274;BME280;45044;41.572;24.730;2023-05-21T03:04:42;91058.56;;;11.61;100.00
59274;BME280;45044;41.572;24.730;2023-05-21T03:07:12;91054.09;;;11.50;100.00
59274;BME280;45044;41.572;24.730;2023-05-21T03:09:40;91054.94;;;11.33;100.00
59274;BME280;45044;41.572;24.730;2023-05-21T03:12:08;91048.56;;;11.37;100.00
59274;BME280;45044;41.572;24.730;2023-05-21T03:14:35;91056.84;;;11.29;100.00
59274;BME280;45044;41.572;24.730;2023-05-21T03:17:02;91049.31;;;11.34;100.00
59274;BME280;45044;41.572;24.730;2023-05-21T03:19:32;91050.44;;;11.37;100.00
59274;BME280;45044;41.572;24.730;2023-05-21T03:22:02;91050.84;;;11.32;100.00
59274;BME280;45044;41.572;24.730;2023-05-21T03:24:31;91053.06;;;11.33;100.00
59274;BME280;45044;41.572;24.730;2023-05-21T03:26:58;91026.47;;;11.17;100.00
59274;BME280;45044;41.572;24.730;2023-05-21T03:29:27;91059.00;;;11.52;100.00
59274;BME280;45044;41.572;24.730;2023-05-21T03:31:55;91063.13;;;11.53;100.00
59274;BME280;45044;41.572;24.730;2023-05-21T03:34:26;91064.63;;;11.54;100.00
59274;BME280;45044;41.572;24.730;2023-05-21T03:36:52;91059.31;;;11.61;100.00
59274;BME280;45044;41.572;24.730;2023-05-21T03:39:19;91048.81;;;11.54;100.00
59274;BME280;45044;41.572;24.730;2023-05-21T03:41:46;91055.16;;;11.68;100.00
59274;BME280;45044;41.572;24.730;2023-05-21T03:44:13;91066.03;;;11.70;100.00
59274;BME280;45044;41.572;24.730;2023-05-21T03:46:39;91058.50;;;11.72;100.00
59274;BME280;45044;41.572;24.730;2023-05-21T03:49:06;91052.78;;;11.84;100.00
59274;BME280;45044;41.572;24.730;2023-05-21T03:51:33;91048.59;;;11.91;100.00
59274;BME280;45044;41.572;24.730;2023-05-21T03:54:00;91050.06;;;11.99;100.00
59274;BME280;45044;41.572;24.730;2023-05-21T03:56:27;91039.13;;;12.01;100.00
59274;BME280;45044;41.572;24.730;2023-05-21T03:58:54;91048.41;;;12.20;100.00
59274;BME280;45044;41.572;24.730;2023-05-21T04:01:21;91059.25;;;12.29;100.00
59274;BME280;45044;41.572;24.730;2023-05-21T04:03:48;91047.19;;;12.32;100.00
59274;BME280;45044;41.572;24.730;2023-05-21T04:06:15;91048.66;;;12.33;100.00
59274;BME280;45044;41.572;24.730;2023-05-21T04:08:42;91062.47;;;12.48;100.00
59274;BME280;45044;41.572;24.730;2023-05-21T04:11:10;91056.84;;;12.46;100.00
59274;BME280;45044;41.572;24.730;2023-05-21T04:13:37;91057.66;;;12.39;100.00
59274;BME280;45044;41.572;24.730;2023-05-21T04:16:04;91054.25;;;12.42;100.00
59274;BME280;45044;41.572;24.730;2023-05-21T04:18:34;91060.97;;;12.47;100.00
59274;BME280;45044;41.572;24.730;2023-05-21T04:21:01;91060.53;;;12.52;100.00
59274;BME280;45044;41.572;24.730;2023-05-21T04:23:28;91041.03;;;12.46;100.00
59274;BME280;45044;41.572;24.730;2023-05-21T04:25:54;91059.75;;;12.59;100.00
59274;BME280;45044;41.572;24.730;2023-05-21T04:28:21;91064.81;;;12.39;100.00
59274;BME280;45044;41.572;24.730;2023-05-21T04:30:49;91071.13;;;12.49;100.00
59274;BME280;45044;41.572;24.730;2023-05-21T04:33:16;91065.84;;;12.49;100.00
59274;BME280;45044;41.572;24.730;2023-05-21T04:35:50;91066.59;;;12.49;100.00
59274;BME280;45044;41.572;24.730;2023-05-21T04:38:17;91067.31;;;12.53;100.00
59274;BME280;45044;41.572;24.730;2023-05-21T04:40:51;91068.41;;;12.56;100.00
59274;BME280;45044;41.572;24.730;2023-05-21T04:43:18;91062.78;;;12.57;100.00
59274;BME280;45044;41.572;24.730;2023-05-21T04:45:52;91052.53;;;12.63;100.00
59274;BME280;45044;41.572;24.730;2023-05-21T04:48:21;91053.00;;;12.54;100.00
59274;BME280;45044;41.572;24.730;2023-05-21T04:50:52;91050.63;;;12.67;100.00
59274;BME280;45044;41.572;24.730;2023-05-21T04:53:19;91050.16;;;12.76;100.00
59274;BME280;45044;41.572;24.730;2023-05-21T04:55:46;91050.16;;;12.76;100.00
59274;BME280;45044;41.572;24.730;2023-05-21T04:58:13;91064.09;;;12.77;100.00
59274;BME280;45044;41.572;24.730;2023-05-21T05:00:43;91068.53;;;12.84;100.00
59274;BME280;45044;41.572;24.730;2023-05-21T05:03:12;91062.59;;;12.76;100.00
59274;BME280;45044;41.572;24.730;2023-05-21T05:05:40;91058.81;;;12.77;100.00
59274;BME280;45044;41.572;24.730;2023-05-21T05:08:07;91056.50;;;12.82;100.00
59274;BME280;45044;41.572;24.730;2023-05-21T05:10:34;91061.53;;;12.69;100.00
59274;BME280;45044;41.572;24.730;2023-05-21T05:13:01;91067.84;;;12.79;100.00
59274;BME280;45044;41.572;24.730;2023-05-21T05:15:28;91070.56;;;12.72;100.00
59274;BME280;45044;41.572;24.730;2023-05-21T05:17:55;91067.16;;;12.72;100.00
59274;BME280;45044;41.572;24.730;2023-05-21T05:20:22;91071.72;;;12.67;100.00
59274;BME280;45044;41.572;24.730;2023-05-21T05:22:49;91064.31;;;12.51;100.00
59274;BME280;45044;41.572;24.730;2023-05-21T05:25:16;91070.34;;;12.52;100.00
59274;BME280;45044;41.572;24.730;2023-05-21T05:27:43;91072.53;;;12.61;100.00
59274;BME280;45044;41.572;24.730;2023-05-21T05:30:10;91068.84;;;12.51;100.00
59274;BME280;45044;41.572;24.730;2023-05-21T05:32:37;91063.59;;;12.47;100.00
59274;BME280;45044;41.572;24.730;2023-05-21T05:35:04;91055.34;;;12.45;100.00
59274;BME280;45044;41.572;24.730;2023-05-21T05:37:31;91048.31;;;12.31;100.00
59274;BME280;45044;41.572;24.730;2023-05-21T05:39:59;91045.97;;;12.40;100.00
59274;BME280;45044;41.572;24.730;2023-05-21T05:42:26;91052.19;;;12.61;100.00
59274;BME280;45044;41.572;24.730;2023-05-21T05:44:52;91048.56;;;12.44;100.00
59274;BME280;45044;41.572;24.730;2023-05-21T05:47:19;91064.63;;;12.61;100.00
59274;BME280;45044;41.572;24.730;2023-05-21T05:49:48;91064.25;;;12.58;100.00
59274;BME280;45044;41.572;24.730;2023-05-21T05:52:15;91066.25;;;12.47;100.00
59274;BME280;45044;41.572;24.730;2023-05-21T05:54:42;91063.53;;;12.54;100.00
59274;BME280;45044;41.572;24.730;2023-05-21T05:57:09;91071.03;;;12.60;100.00
59274;BME280;45044;41.572;24.730;2023-05-21T05:59:37;91054.63;;;12.41;100.00
59274;BME280;45044;41.572;24.730;2023-05-21T06:02:04;91077.94;;;12.46;100.00
59274;BME280;45044;41.572;24.730;2023-05-21T06:04:31;91082.13;;;12.40;100.00
59274;BME280;45044;41.572;24.730;2023-05-21T06:06:57;91094.50;;;12.47;100.00
59274;BME280;45044;41.572;24.730;2023-05-21T06:09:25;91093.09;;;12.34;100.00
59274;BME280;45044;41.572;24.730;2023-05-21T06:11:52;91099.16;;;12.28;100.00
59274;BME280;45044;41.572;24.730;2023-05-21T06:14:19;91102.91;;;12.30;100.00
59274;BME280;45044;41.572;24.730;2023-05-21T06:16:46;91098.69;;;11.83;100.00
59274;BME280;45044;41.572;24.730;2023-05-21T06:19:13;91097.09;;;11.97;100.00
59274;BME280;45044;41.572;24.730;2023-05-21T06:21:40;91097.09;;;11.97;100.00
59274;BME280;45044;41.572;24.730;2023-05-21T06:24:06;91096.41;;;11.85;100.00
59274;BME280;45044;41.572;24.730;2023-05-21T06:26:33;91097.06;;;12.01;100.00
59274;BME280;45044;41.572;24.730;2023-05-21T06:29:00;91093.75;;;11.89;100.00
59274;BME280;45044;41.572;24.730;2023-05-21T06:31:27;91093.44;;;11.76;100.00
59274;BME280;45044;41.572;24.730;2023-05-21T06:33:54;91086.28;;;11.80;100.00
59274;BME280;45044;41.572;24.730;2023-05-21T06:36:21;91092.66;;;11.86;100.00
59274;BME280;45044;41.572;24.730;2023-05-21T06:38:48;91083.28;;;11.78;100.00
59274;BME280;45044;41.572;24.730;2023-05-21T06:41:15;91086.69;;;11.75;100.00
59274;BME280;45044;41.572;24.730;2023-05-21T06:43:41;91091.50;;;11.88;100.00
59274;BME280;45044;41.572;24.730;2023-05-21T06:46:08;91083.94;;;11.93;100.00
59274;BME280;45044;41.572;24.730;2023-05-21T06:48:35;91092.28;;;11.84;100.00
59274;BME280;45044;41.572;24.730;2023-05-21T06:51:02;91077.25;;;11.78;100.00
59274;BME280;45044;41.572;24.730;2023-05-21T06:53:29;91090.81;;;11.76;100.00
59274;BME280;45044;41.572;24.730;2023-05-21T06:55:55;91084.72;;;11.90;100.00
59274;BME280;45044;41.572;24.730;2023-05-21T06:58:22;91078.72;;;11.86;100.00
59274;BME280;45044;41.572;24.730;2023-05-21T07:00:49;91087.69;;;11.96;100.00
59274;BME280;45044;41.572;24.730;2023-05-21T07:03:16;91089.19;;;11.97;100.00
59274;BME280;45044;41.572;24.730;2023-05-21T07:05:44;91100.50;;;11.94;100.00
59274;BME280;45044;41.572;24.730;2023-05-21T07:08:10;91097.16;;;11.90;100.00
59274;BME280;45044;41.572;24.730;2023-05-21T07:10:37;91094.81;;;12.03;100.00
59274;BME280;45044;41.572;24.730;2023-05-21T07:13:04;91086.59;;;11.90;100.00
59274;BME280;45044;41.572;24.730;2023-05-21T07:15:31;91100.56;;;11.86;100.00
59274;BME280;45044;41.572;24.730;2023-05-21T07:17:58;91095.63;;;11.89;100.00
59274;BME280;45044;41.572;24.730;2023-05-21T07:20:25;91098.53;;;12.05;100.00
59274;BME280;45044;41.572;24.730;2023-05-21T07:22:51;91094.84;;;11.99;100.00
59274;BME280;45044;41.572;24.730;2023-05-21T07:25:18;91102.31;;;12.04;100.00
59274;BME280;45044;41.572;24.730;2023-05-21T07:27:45;91094.50;;;11.90;100.00
59274;BME280;45044;41.572;24.730;2023-05-21T07:30:13;91103.06;;;12.05;100.00
59274;BME280;45044;41.572;24.730;2023-05-21T07:32:40;91106.06;;;12.03;100.00
59274;BME280;45044;41.572;24.730;2023-05-21T07:35:07;91105.03;;;11.93;100.00
59274;BME280;45044;41.572;24.730;2023-05-21T07:37:34;91107.22;;;12.02;100.00
59274;BME280;45044;41.572;24.730;2023-05-21T07:40:01;91113.50;;;12.27;100.00
59274;BME280;45044;41.572;24.730;2023-05-21T07:42:29;91117.94;;;12.33;100.00
59274;BME280;45044;41.572;24.730;2023-05-21T07:44:56;91105.91;;;12.32;100.00
59274;BME280;45044;41.572;24.730;2023-05-21T07:47:22;91113.50;;;12.27;100.00
59274;BME280;45044;41.572;24.730;2023-05-21T07:49:49;91113.31;;;12.45;100.00
59274;BME280;45044;41.572;24.730;2023-05-21T07:52:16;91112.56;;;12.48;100.00
59274;BME280;45044;41.572;24.730;2023-05-21T07:54:43;91118.25;;;12.43;100.00
59274;BME280;45044;41.572;24.730;2023-05-21T07:57:09;91127.47;;;12.66;100.00
59274;BME280;45044;41.572;24.730;2023-05-21T07:59:36;91126.66;;;12.73;100.00
59274;BME280;45044;41.572;24.730;2023-05-21T08:02:03;91121.97;;;12.49;100.00
59274;BME280;45044;41.572;24.730;2023-05-21T08:04:30;91122.03;;;12.84;100.00
59274;BME280;45044;41.572;24.730;2023-05-21T08:06:57;91117.47;;;12.92;100.00
59274;BME280;45044;41.572;24.730;2023-05-21T08:09:24;91119.16;;;12.71;100.00
59274;BME280;45044;41.572;24.730;2023-05-21T08:11:51;91120.38;;;12.59;100.00
59274;BME280;45044;41.572;24.730;2023-05-21T08:14:18;91108.91;;;12.34;100.00
59274;BME280;45044;41.572;24.730;2023-05-21T08:16:45;91110.97;;;12.58;100.00
59274;BME280;45044;41.572;24.730;2023-05-21T08:19:12;91114.53;;;12.82;100.00
59274;BME280;45044;41.572;24.730;2023-05-21T08:21:39;91120.75;;;12.61;100.00
59274;BME280;45044;41.572;24.730;2023-05-21T08:24:06;91118.56;;;12.49;100.00
59274;BME280;45044;41.572;24.730;2023-05-21T08:26:32;91119.16;;;12.71;100.00
59274;BME280;45044;41.572;24.730;2023-05-21T08:28:59;91128.22;;;12.70;100.00
59274;BME280;45044;41.572;24.730;2023-05-21T08:31:26;91117.47;;;12.92;100.00
59274;BME280;45044;41.572;24.730;2023-05-21T08:33:53;91126.94;;;12.86;100.00
59274;BME280;45044;41.572;24.730;2023-05-21T08:36:22;91114.31;;;13.04;100.00
59274;BME280;45044;41.572;24.730;2023-05-21T08:38:49;91128.28;;;13.01;100.00
59274;BME280;45044;41.572;24.730;2023-05-21T08:41:17;91128.81;;;12.85;100.00
59274;BME280;45044;41.572;24.730;2023-05-21T08:43:54;91123.84;;;12.91;100.00
59274;BME280;45044;41.572;24.730;2023-05-21T08:46:22;91119.63;;;12.58;100.00
59274;BME280;45044;41.572;24.730;2023-05-21T08:48:50;91126.53;;;12.87;100.00
59274;BME280;45044;41.572;24.730;2023-05-21T08:51:21;91124.88;;;13.04;100.00
59274;BME280;45044;41.572;24.730;2023-05-21T08:53:48;91122.66;;;13.34;100.00
59274;BME280;45044;41.572;24.730;2023-05-21T08:56:16;91116.94;;;13.39;100.00
59274;BME280;45044;41.572;24.730;2023-05-21T08:58:47;91129.38;;;13.43;100.00
59274;BME280;45044;41.572;24.730;2023-05-21T09:01:14;91124.72;;;13.54;100.00
59274;BME280;45044;41.572;24.730;2023-05-21T09:03:45;91125.97;;;13.77;100.00
59274;BME280;45044;41.572;24.730;2023-05-21T09:06:12;91123.22;;;13.84;100.00
59274;BME280;45044;41.572;24.730;2023-05-21T09:08:43;91132.09;;;13.70;100.00
59274;BME280;45044;41.572;24.730;2023-05-21T09:11:12;91115.03;;;13.75;100.00
59274;BME280;45044;41.572;24.730;2023-05-21T09:13:40;91126.19;;;13.90;100.00
59274;BME280;45044;41.572;24.730;2023-05-21T09:16:09;91123.69;;;13.79;100.00
59274;BME280;45044;41.572;24.730;2023-05-21T09:18:36;91129.41;;;13.74;100.00
59274;BME280;45044;41.572;24.730;2023-05-21T09:21:26;91132.63;;;13.85;100.00
59274;BME280;45044;41.572;24.730;2023-05-21T09:23:56;91130.41;;;13.84;100.00
59274;BME280;45044;41.572;24.730;2023-05-21T09:26:23;91127.09;;;13.76;100.00
59274;BME280;45044;41.572;24.730;2023-05-21T09:28:51;91130.00;;;13.85;100.00
59274;BME280;45044;41.572;24.730;2023-05-21T09:31:22;91133.56;;;14.03;100.00
59274;BME280;45044;41.572;24.730;2023-05-21T09:33:50;91123.81;;;13.96;100.00
59274;BME280;45044;41.572;24.730;2023-05-21T09:36:18;91131.06;;;14.19;100.00
59274;BME280;45044;41.572;24.730;2023-05-21T09:38:49;91123.03;;;13.99;100.00
59274;BME280;45044;41.572;24.730;2023-05-21T09:41:18;91121.91;;;13.96;100.00
59274;BME280;45044;41.572;24.730;2023-05-21T09:43:47;91127.13;;;13.72;100.00
59274;BME280;45044;41.572;24.730;2023-05-21T09:46:14;91124.06;;;13.77;100.00
59274;BME280;45044;41.572;24.730;2023-05-21T09:48:43;91122.81;;;13.86;100.00
59274;BME280;45044;41.572;24.730;2023-05-21T09:53:55;91124.13;;;13.74;100.00
59274;BME280;45044;41.572;24.730;2023-05-21T09:56:28;91123.22;;;13.84;100.00
59274;BME280;45044;41.572;24.730;2023-05-21T09:59:00;91122.38;;;13.91;100.00
59274;BME280;45044;41.572;24.730;2023-05-21T10:01:31;91124.47;;;14.04;100.00
59274;BME280;45044;41.572;24.730;2023-05-21T10:04:01;91125.88;;;14.12;100.00
59274;BME280;45044;41.572;24.730;2023-05-21T10:06:29;91130.00;;;14.13;100.00
59274;BME280;45044;41.572;24.730;2023-05-21T10:08:59;91125.66;;;14.27;100.00
59274;BME280;45044;41.572;24.730;2023-05-21T10:11:31;91122.22;;;14.30;100.00
59274;BME280;45044;41.572;24.730;2023-05-21T10:14:06;91125.38;;;14.21;100.00
59274;BME280;45044;41.572;24.730;2023-05-21T10:16:39;91124.91;;;14.26;100.00
59274;BME280;45044;41.572;24.730;2023-05-21T10:19:07;91127.81;;;14.08;100.00
59274;BME280;45044;41.572;24.730;2023-05-21T10:21:37;91137.13;;;14.16;100.00
59274;BME280;45044;41.572;24.730;2023-05-21T10:24:07;91133.72;;;14.19;100.00
59274;BME280;45044;41.572;24.730;2023-05-21T10:26:35;91138.78;;;14.06;100.00
59274;BME280;45044;41.572;24.730;2023-05-21T10:29:02;91129.09;;;13.96;100.00
59274;BME280;45044;41.572;24.730;2023-05-21T10:31:28;91130.66;;;13.93;100.00
59274;BME280;45044;41.572;24.730;2023-05-21T10:33:57;91131.88;;;14.12;100.00
59274;BME280;45044;41.572;24.730;2023-05-21T10:36:29;91141.78;;;14.08;100.00
59274;BME280;45044;41.572;24.730;2023-05-21T10:38:59;91135.19;;;14.20;100.00
59274;BME280;45044;41.572;24.730;2023-05-21T10:41:26;91136.44;;;14.12;100.00
59274;BME280;45044;41.572;24.730;2023-05-21T10:44:05;91134.94;;;14.11;100.00
59274;BME280;45044;41.572;24.730;2023-05-21T10:47:22;91145.31;;;14.25;100.00
59274;BME280;45044;41.572;24.730;2023-05-21T10:53:07;91132.44;;;14.28;100.00
59274;BME280;45044;41.572;24.730;2023-05-21T10:55:56;91131.16;;;14.12;100.00
59274;BME280;45044;41.572;24.730;2023-05-21T11:01:06;91140.84;;;14.22;100.00
59274;BME280;45044;41.572;24.730;2023-05-21T11:03:33;91147.50;;;14.31;100.00
59274;BME280;45044;41.572;24.730;2023-05-21T11:06:03;91146.16;;;14.19;100.00
59274;BME280;45044;41.572;24.730;2023-05-21T11:08:34;91140.78;;;14.26;100.00
59274;BME280;45044;41.572;24.730;2023-05-21T11:11:03;91142.31;;;14.23;100.00
59274;BME280;45044;41.572;24.730;2023-05-21T11:13:50;91139.72;;;14.20;100.00
59274;BME280;45044;41.572;24.730;2023-05-21T11:16:17;91134.78;;;14.22;100.00
59274;BME280;45044;41.572;24.730;2023-05-21T11:21:19;91137.41;;;13.94;100.00
59274;BME280;45044;41.572;24.730;2023-05-21T11:26:20;91121.72;;;14.11;100.00
59274;BME280;45044;41.572;24.730;2023-05-21T11:31:31;91138.44;;;14.32;100.00
59274;BME280;45044;41.572;24.730;2023-05-21T11:34:20;91132.75;;;14.06;100.00
59274;BME280;45044;41.572;24.730;2023-05-21T11:37:26;91133.56;;;14.03;100.00
59274;BME280;45044;41.572;24.730;2023-05-21T11:42:41;91135.84;;;14.00;100.00
59274;BME280;45044;41.572;24.730;2023-05-21T11:45:09;91131.84;;;14.16;100.00
59274;BME280;45044;41.572;24.730;2023-05-21T11:47:38;91135.53;;;14.22;100.00
59274;BME280;45044;41.572;24.730;2023-05-21T11:50:11;91131.16;;;14.12;100.00
59274;BME280;45044;41.572;24.730;2023-05-21T11:52:40;91128.94;;;14.34;100.00
59274;BME280;45044;41.572;24.730;2023-05-21T11:55:08;91134.13;;;14.14;100.00
59274;BME280;45044;41.572;24.730;2023-05-21T11:57:36;91130.16;;;14.30;100.00
59274;BME280;45044;41.572;24.730;2023-05-21T12:00:03;91112.63;;;14.40;100.00
59274;BME280;45044;41.572;24.730;2023-05-21T12:02:46;91129.00;;;14.55;100.00
59274;BME280;45044;41.572;24.730;2023-05-21T12:05:13;91118.31;;;14.38;100.00
59274;BME280;45044;41.572;24.730;2023-05-21T12:07:41;91123.19;;;14.40;100.00
59274;BME280;45044;41.572;24.730;2023-05-21T12:10:08;91113.59;;;14.25;100.00
59274;BME280;45044;41.572;24.730;2023-05-21T12:12:39;91116.53;;;14.04;100.00
59274;BME280;45044;41.572;24.730;2023-05-21T12:15:21;91123.03;;;13.99;100.00
59274;BME280;45044;41.572;24.730;2023-05-21T12:17:49;91114.00;;;13.96;100.00
59274;BME280;45044;41.572;24.730;2023-05-21T12:20:19;91118.31;;;14.10;100.00
59274;BME280;45044;41.572;24.730;2023-05-21T12:22:48;91117.09;;;13.91;100.00
59274;BME280;45044;41.572;24.730;2023-05-21T12:25:19;91109.22;;;13.87;100.00
59274;BME280;45044;41.572;24.730;2023-05-21T12:27:47;91105.16;;;14.07;100.00
59274;BME280;45044;41.572;24.730;2023-05-21T12:30:18;91116.09;;;14.09;100.00
59274;BME280;45044;41.572;24.730;2023-05-21T12:32:45;91103.22;;;14.11;100.00
59274;BME280;45044;41.572;24.730;2023-05-21T12:35:22;91107.47;;;14.05;100.00
59274;BME280;45044;41.572;24.730;2023-05-21T12:37:50;91092.81;;;14.00;100.00
59274;BME280;45044;41.572;24.730;2023-05-21T12:40:17;91113.78;;;14.11;100.00
59274;BME280;45044;41.572;24.730;2023-05-21T12:42:48;91105.41;;;14.16;100.00
59274;BME280;45044;41.572;24.730;2023-05-21T12:45:16;91100.94;;;14.13;100.00
59274;BME280;45044;41.572;24.730;2023-05-21T12:47:47;91096.38;;;14.41;100.00
59274;BME280;45044;41.572;24.730;2023-05-21T12:50:19;91097.28;;;14.55;100.00
59274;BME280;45044;41.572;24.730;2023-05-21T12:52:46;91097.16;;;14.38;100.00
59274;BME280;45044;41.572;24.730;2023-05-21T12:55:13;91097.38;;;14.47;100.00
59274;BME280;45044;41.572;24.730;2023-05-21T12:57:40;91092.69;;;14.59;100.00
59274;BME280;45044;41.572;24.730;2023-05-21T13:00:09;91098.09;;;14.52;100.00
59274;BME280;45044;41.572;24.730;2023-05-21T13:02:41;91094.84;;;14.40;100.00
59274;BME280;45044;41.572;24.730;2023-05-21T13:05:15;91089.63;;;14.60;100.00
59274;BME280;45044;41.572;24.730;2023-05-21T13:07:45;91085.47;;;14.59;100.00
59274;BME280;45044;41.572;24.730;2023-05-21T13:10:13;91083.75;;;14.73;100.00
59274;BME280;45044;41.572;24.730;2023-05-21T13:12:41;91090.47;;;14.78;100.00